createdAt,value
2023-04-11T00:00:07.772Z,0.50
2023-04-11T00:01:07.775Z,0.40
2023-04-11T00:02:07.868Z,0.35
2023-04-11T00:03:08.032Z,0.34
2023-04-11T00:04:08.134Z,0.35
2023-04-11T00:05:07.896Z,0.38
2023-04-11T00:06:07.794Z,0.41
2023-04-11T00:07:07.807Z,0.45
2023-04-11T00:08:07.754Z,0.49
2023-04-11T00:09:07.760Z,0.50
2023-04-11T00:10:07.772Z,0.50
2023-04-11T00:11:07.811Z,0.51
2023-04-11T00:12:07.804Z,0.50
2023-04-11T00:13:07.824Z,0.50
2023-04-11T00:14:07.830Z,0.50
2023-04-11T00:15:07.835Z,0.51
2023-04-11T00:16:07.929Z,0.50
2023-04-11T00:17:07.870Z,0.50
2023-04-11T00:18:07.877Z,0.50
2023-04-11T00:19:07.891Z,0.51
2023-04-11T00:20:08.016Z,0.51
2023-04-11T00:21:07.918Z,0.51
2023-04-11T00:22:07.936Z,0.50
2023-04-11T00:23:07.967Z,0.51
2023-04-11T00:24:07.970Z,0.51
2023-04-11T00:25:07.983Z,0.50
2023-04-11T00:26:07.993Z,0.50
2023-04-11T00:27:08.107Z,0.51
2023-04-11T00:28:08.028Z,0.51
2023-04-11T00:29:08.044Z,0.51
2023-04-11T00:30:08.060Z,0.50
2023-04-11T00:31:08.074Z,0.51
2023-04-11T00:32:08.281Z,0.51
2023-04-11T00:33:08.138Z,0.52
2023-04-11T00:34:08.133Z,0.52
2023-04-11T00:35:08.151Z,0.51
2023-04-11T00:36:08.213Z,0.51
2023-04-11T00:37:08.177Z,0.51
2023-04-11T00:38:08.200Z,0.51
2023-04-11T00:39:08.219Z,0.50
2023-04-11T00:40:08.245Z,0.51
2023-04-11T00:41:08.257Z,0.50
2023-04-11T00:42:08.285Z,0.51
2023-04-11T00:43:08.341Z,0.50
2023-04-11T00:44:08.314Z,0.50
2023-04-11T00:45:08.346Z,0.51
2023-04-11T00:46:08.373Z,0.51
2023-04-11T00:47:08.381Z,0.52
2023-04-11T00:48:08.566Z,0.51
2023-04-11T00:49:08.421Z,0.51
2023-04-11T00:50:08.438Z,0.51
2023-04-11T00:51:08.454Z,0.50
2023-04-11T00:52:08.466Z,0.52
2023-04-11T00:53:08.510Z,0.51
2023-04-11T00:54:08.496Z,0.52
2023-04-11T00:55:08.519Z,0.52
2023-04-11T00:56:08.540Z,0.52
2023-04-11T00:57:08.576Z,0.51
2023-04-11T00:58:08.651Z,0.51
2023-04-11T00:59:08.624Z,0.52
2023-04-11T01:00:08.632Z,0.51
2023-04-11T01:01:08.683Z,0.51
2023-04-11T01:02:08.708Z,0.52
2023-04-11T01:03:08.853Z,0.51
2023-04-11T01:04:08.990Z,0.52
2023-04-11T01:05:08.741Z,0.52
2023-04-11T01:06:08.763Z,0.53
2023-04-11T01:07:08.775Z,0.51
2023-04-11T01:08:08.797Z,0.52
2023-04-11T01:09:08.817Z,0.51
2023-04-11T01:10:08.853Z,0.51
2023-04-11T01:11:08.875Z,0.52
2023-04-11T01:12:08.949Z,0.51
2023-04-11T01:13:08.923Z,0.51
2023-04-11T01:14:08.939Z,0.51
2023-04-11T01:15:09.015Z,0.52
2023-04-11T01:16:09.006Z,0.51
2023-04-11T01:17:08.999Z,0.51
2023-04-11T01:18:09.126Z,0.51
2023-04-11T01:19:09.048Z,0.51
2023-04-11T01:20:09.078Z,0.52
2023-04-11T01:21:09.092Z,0.52
2023-04-11T01:22:09.111Z,0.51
2023-04-11T01:23:09.244Z,0.52
2023-04-11T01:24:09.161Z,0.51
2023-04-11T01:25:09.304Z,0.51
2023-04-11T01:26:09.225Z,0.52
2023-04-11T01:27:09.280Z,0.51
2023-04-11T01:28:09.317Z,0.52
2023-04-11T01:29:09.283Z,0.52
2023-04-11T01:30:09.336Z,0.51
2023-04-11T01:31:09.421Z,0.51
2023-04-11T01:32:09.384Z,0.52
2023-04-11T01:33:09.378Z,0.51
2023-04-11T01:34:09.438Z,0.50
2023-04-11T01:35:09.405Z,0.52
2023-04-11T01:36:09.521Z,0.52
2023-04-11T01:37:09.441Z,0.52
2023-04-11T01:38:09.525Z,0.51
2023-04-11T01:39:09.565Z,0.53
2023-04-11T01:40:09.569Z,0.52
2023-04-11T01:41:09.539Z,0.52
2023-04-11T01:42:09.545Z,0.52
2023-04-11T01:43:09.595Z,0.51
2023-04-11T01:44:09.596Z,0.52
2023-04-11T01:45:09.608Z,0.52
2023-04-11T01:46:09.641Z,0.52
2023-04-11T01:47:09.680Z,0.52
2023-04-11T01:48:09.839Z,0.52
2023-04-11T01:49:09.828Z,0.52
2023-04-11T01:50:09.727Z,0.52
2023-04-11T01:51:09.785Z,0.52
2023-04-11T01:52:09.772Z,0.52
2023-04-11T01:53:09.838Z,0.51
2023-04-11T01:54:09.820Z,0.52
2023-04-11T01:55:09.826Z,0.52
2023-04-11T01:56:09.868Z,0.51
2023-04-11T01:57:09.862Z,0.52
2023-04-11T01:58:09.883Z,0.52
2023-04-11T01:59:09.898Z,0.53
2023-04-11T02:00:09.930Z,0.52
2023-04-11T02:01:09.952Z,0.53
2023-04-11T02:02:10.176Z,0.52
2023-04-11T02:03:10.228Z,0.52
2023-04-11T02:04:10.147Z,0.53
2023-04-11T02:05:10.032Z,0.52
2023-04-11T02:06:10.055Z,0.52
2023-04-11T02:07:10.079Z,0.53
2023-04-11T02:08:10.095Z,0.52
2023-04-11T02:09:10.117Z,0.52
2023-04-11T02:10:10.136Z,0.53
2023-04-11T02:11:10.155Z,0.52
2023-04-11T02:12:10.173Z,0.52
2023-04-11T02:13:10.202Z,0.51
2023-04-11T02:14:10.217Z,0.51
2023-04-11T02:15:10.243Z,0.52
2023-04-11T02:16:10.344Z,0.52
2023-04-11T02:17:10.291Z,0.52
2023-04-11T02:18:10.317Z,0.52
2023-04-11T02:19:10.358Z,0.52
2023-04-11T02:20:10.357Z,0.51
2023-04-11T02:21:10.374Z,0.53
2023-04-11T02:22:10.404Z,0.51
2023-04-11T02:23:10.418Z,0.52
2023-04-11T02:24:10.481Z,0.52
2023-04-11T02:25:10.480Z,0.51
2023-04-11T02:26:10.496Z,0.52
2023-04-11T02:27:10.521Z,0.52
2023-04-11T02:28:10.551Z,0.52
2023-04-11T02:29:10.562Z,0.52
2023-04-11T02:30:10.589Z,0.52
2023-04-11T02:31:10.689Z,0.52
2023-04-11T02:32:10.856Z,0.51
2023-04-11T02:33:10.675Z,0.52
2023-04-11T02:34:10.693Z,0.52
2023-04-11T02:35:10.742Z,0.52
2023-04-11T02:36:10.767Z,0.52
2023-04-11T02:37:10.764Z,0.52
2023-04-11T02:38:10.818Z,0.52
2023-04-11T02:39:10.804Z,0.52
2023-04-11T02:40:10.853Z,0.51
2023-04-11T02:41:10.856Z,0.51
2023-04-11T02:42:10.924Z,0.52
2023-04-11T02:43:10.923Z,0.52
2023-04-11T02:44:10.924Z,0.51
2023-04-11T02:45:10.955Z,0.52
2023-04-11T02:46:13.281Z,0.52
2023-04-11T02:47:11.150Z,0.54
2023-04-11T02:48:10.957Z,0.53
2023-04-11T02:49:10.951Z,0.53
2023-04-11T02:50:10.957Z,0.53
2023-04-11T02:51:10.971Z,0.51
2023-04-11T02:52:10.938Z,0.52
2023-04-11T02:53:10.947Z,0.52
2023-04-11T02:54:10.910Z,0.52
2023-04-11T02:55:10.905Z,0.52
2023-04-11T02:56:10.949Z,0.52
2023-04-11T02:57:10.884Z,0.52
2023-04-11T02:58:10.907Z,0.51
2023-04-11T02:59:10.872Z,0.51
2023-04-11T03:00:10.865Z,0.51
2023-04-11T03:01:10.850Z,0.52
2023-04-11T03:02:10.974Z,0.51
2023-04-11T03:03:11.106Z,0.51
2023-04-11T03:04:10.899Z,0.52
2023-04-11T03:05:10.821Z,0.52
2023-04-11T03:06:10.818Z,0.52
2023-04-11T03:07:10.841Z,0.51
2023-04-11T03:08:10.831Z,0.51
2023-04-11T03:09:10.796Z,0.52
2023-04-11T03:10:10.836Z,0.51
2023-04-11T03:11:10.788Z,0.52
2023-04-11T03:12:10.773Z,0.53
2023-04-11T03:13:10.802Z,0.52
2023-04-11T03:14:10.761Z,0.52
2023-04-11T03:15:10.760Z,0.50
2023-04-11T03:16:10.809Z,0.53
2023-04-11T03:17:10.740Z,0.52
2023-04-11T03:18:10.741Z,0.52
2023-04-11T03:19:10.730Z,0.53
2023-04-11T03:20:10.716Z,0.51
2023-04-11T03:21:10.735Z,0.51
2023-04-11T03:22:10.722Z,0.52
2023-04-11T03:23:10.787Z,0.52
2023-04-11T03:24:10.711Z,0.51
2023-04-11T03:25:10.705Z,0.52
2023-04-11T03:26:10.709Z,0.52
2023-04-11T03:27:10.702Z,0.52
2023-04-11T03:28:10.732Z,0.52
2023-04-11T03:29:10.748Z,0.52
2023-04-11T03:30:10.788Z,0.52
2023-04-11T03:31:10.810Z,0.51
2023-04-11T03:32:10.815Z,0.52
2023-04-11T03:33:10.829Z,0.51
2023-04-11T03:34:10.875Z,0.52
2023-04-11T03:35:10.899Z,0.51
2023-04-11T03:36:10.939Z,0.52
2023-04-11T03:37:10.933Z,0.52
2023-04-11T03:38:10.961Z,0.51
2023-04-11T03:39:11.007Z,0.52
2023-04-11T03:40:11.016Z,0.51
2023-04-11T03:41:11.027Z,0.53
2023-04-11T03:42:11.051Z,0.53
2023-04-11T03:43:11.085Z,0.52
2023-04-11T03:44:11.117Z,0.52
2023-04-11T03:45:11.146Z,0.52
2023-04-11T03:46:11.211Z,0.51
2023-04-11T03:47:11.165Z,0.51
2023-04-11T03:48:11.215Z,0.52
2023-04-11T03:49:11.212Z,0.52
2023-04-11T03:50:11.232Z,0.52
2023-04-11T03:51:11.267Z,0.52
2023-04-11T03:52:11.293Z,0.52
2023-04-11T03:53:11.331Z,0.53
2023-04-11T03:54:11.341Z,0.52
2023-04-11T03:55:11.371Z,0.52
2023-04-11T03:56:11.372Z,0.52
2023-04-11T03:57:11.397Z,0.53
2023-04-11T03:58:11.437Z,0.52
2023-04-11T03:59:11.436Z,0.52
2023-04-11T04:00:11.464Z,0.53
2023-04-11T04:01:11.485Z,0.52
2023-04-11T04:02:12.073Z,0.52
2023-04-11T04:03:11.672Z,0.52
2023-04-11T04:04:11.631Z,0.52
2023-04-11T04:05:11.660Z,0.53
2023-04-11T04:06:11.614Z,0.52
2023-04-11T04:07:11.628Z,0.52
2023-04-11T04:08:11.661Z,0.52
2023-04-11T04:09:11.668Z,0.52
2023-04-11T04:10:11.686Z,0.52
2023-04-11T04:11:11.742Z,0.53
2023-04-11T04:12:11.727Z,0.52
2023-04-11T04:13:11.761Z,0.51
2023-04-11T04:14:11.797Z,0.52
2023-04-11T04:15:11.805Z,0.53
2023-04-11T04:16:11.931Z,0.52
2023-04-11T04:17:11.846Z,0.53
2023-04-11T04:18:11.875Z,0.53
2023-04-11T04:19:11.904Z,0.53
2023-04-11T04:20:11.914Z,0.53
2023-04-11T04:21:11.943Z,0.54
2023-04-11T04:22:12.124Z,0.52
2023-04-11T04:23:12.000Z,0.54
2023-04-11T04:24:12.012Z,0.53
2023-04-11T04:25:12.025Z,0.53
2023-04-11T04:26:12.051Z,0.53
2023-04-11T04:27:12.079Z,0.53
2023-04-11T04:28:12.081Z,0.53
2023-04-11T04:29:12.099Z,0.51
2023-04-11T04:30:12.123Z,0.52
2023-04-11T04:31:12.143Z,0.53
2023-04-11T04:32:12.175Z,0.52
2023-04-11T04:33:12.276Z,0.54
2023-04-11T04:34:12.227Z,0.53
2023-04-11T04:35:12.244Z,0.53
2023-04-11T04:36:12.538Z,0.54
2023-04-11T04:37:12.282Z,0.53
2023-04-11T04:38:12.333Z,0.52
2023-04-11T04:39:12.319Z,0.53
2023-04-11T04:40:12.336Z,0.53
2023-04-11T04:41:12.363Z,0.53
2023-04-11T04:42:12.390Z,0.53
2023-04-11T04:43:12.477Z,0.53
2023-04-11T04:44:12.422Z,0.52
2023-04-11T04:45:12.442Z,0.52
2023-04-11T04:46:12.490Z,0.52
2023-04-11T04:47:12.485Z,0.52
2023-04-11T04:48:12.509Z,0.53
2023-04-11T04:49:12.532Z,0.53
2023-04-11T04:50:12.565Z,0.51
2023-04-11T04:51:12.585Z,0.53
2023-04-11T04:52:12.607Z,0.52
2023-04-11T04:53:12.662Z,0.53
2023-04-11T04:54:12.650Z,0.54
2023-04-11T04:55:12.680Z,0.53
2023-04-11T04:56:12.675Z,0.54
2023-04-11T04:57:12.714Z,0.53
2023-04-11T04:58:12.750Z,0.51
2023-04-11T04:59:12.819Z,0.53
2023-04-11T05:00:12.766Z,0.53
2023-04-11T05:01:12.806Z,0.52
2023-04-11T05:02:12.908Z,0.52
2023-04-11T05:03:12.982Z,0.53
2023-04-11T05:04:13.083Z,0.53
2023-04-11T05:05:12.880Z,0.52
2023-04-11T05:06:13.388Z,0.53
2023-04-11T05:07:12.938Z,0.51
2023-04-11T05:08:12.954Z,0.53
2023-04-11T05:09:12.977Z,0.52
2023-04-11T05:10:13.032Z,0.52
2023-04-11T05:11:13.037Z,0.53
2023-04-11T05:12:13.046Z,0.53
2023-04-11T05:13:13.067Z,0.51
2023-04-11T05:14:13.091Z,0.53
2023-04-11T05:15:13.137Z,0.52
2023-04-11T05:16:13.167Z,0.53
2023-04-11T05:17:13.147Z,0.53
2023-04-11T05:18:13.172Z,0.53
2023-04-11T05:19:13.193Z,0.52
2023-04-11T05:20:13.234Z,0.53
2023-04-11T05:21:13.402Z,0.53
2023-04-11T05:22:13.263Z,0.52
2023-04-11T05:23:13.299Z,0.53
2023-04-11T05:24:13.512Z,0.53
2023-04-11T05:25:13.427Z,0.52
2023-04-11T05:26:13.341Z,0.52
2023-04-11T05:27:13.373Z,0.52
2023-04-11T05:28:13.378Z,0.52
2023-04-11T05:29:13.406Z,0.52
2023-04-11T05:30:13.678Z,0.52
2023-04-11T05:31:14.492Z,0.53
2023-04-11T05:32:13.584Z,0.53
2023-04-11T05:33:13.711Z,0.53
2023-04-11T05:34:13.524Z,0.53
2023-04-11T05:35:13.557Z,0.52
2023-04-11T05:36:14.024Z,0.53
2023-04-11T05:37:13.588Z,0.52
2023-04-11T05:38:13.618Z,0.53
2023-04-11T05:39:13.656Z,0.53
2023-04-11T05:40:13.667Z,0.54
2023-04-11T05:41:13.903Z,0.53
2023-04-11T05:42:13.722Z,0.52
2023-04-11T05:43:13.737Z,0.52
2023-04-11T05:44:13.919Z,0.52
2023-04-11T05:45:13.786Z,0.52
2023-04-11T05:46:13.867Z,0.53
2023-04-11T05:47:13.860Z,0.53
2023-04-11T05:48:16.025Z,0.53
2023-04-11T05:49:13.908Z,0.54
2023-04-11T05:50:13.865Z,0.55
2023-04-11T05:51:13.852Z,0.54
2023-04-11T05:52:13.825Z,0.53
2023-04-11T05:53:13.935Z,0.54
2023-04-11T05:54:13.953Z,0.53
2023-04-11T05:55:13.818Z,0.53
2023-04-11T05:56:13.819Z,0.55
2023-04-11T05:57:13.837Z,0.53
2023-04-11T05:58:13.945Z,0.53
2023-04-11T05:59:13.809Z,0.53
2023-04-11T06:00:18.174Z,0.54
2023-04-11T06:01:13.787Z,0.54
2023-04-11T06:02:13.840Z,0.54
2023-04-11T06:03:13.941Z,0.54
2023-04-11T06:04:14.078Z,0.54
2023-04-11T06:05:13.826Z,0.57
2023-04-11T06:06:13.836Z,0.60
2023-04-11T06:07:29.479Z,0.58
2023-04-11T06:08:21.231Z,0.58
2023-04-11T06:09:17.155Z,0.59
2023-04-11T06:10:13.823Z,0.59
2023-04-11T06:11:13.824Z,0.60
2023-04-11T06:12:14.809Z,0.62
2023-04-11T06:13:17.025Z,0.66
2023-04-11T06:14:13.824Z,0.59
2023-04-11T06:15:13.839Z,0.60
2023-04-11T06:16:13.923Z,0.63
2023-04-11T06:17:13.777Z,0.70
2023-04-11T06:18:13.909Z,0.80
2023-04-11T06:19:13.830Z,0.84
2023-04-11T06:20:14.216Z,0.85
2023-04-11T06:21:14.440Z,0.85
2023-04-11T06:22:13.717Z,0.86
2023-04-11T06:23:13.913Z,0.89
2023-04-11T06:24:13.704Z,0.89
2023-04-11T06:25:13.701Z,0.91
2023-04-11T06:26:13.709Z,0.93
2023-04-11T06:27:13.695Z,0.92
2023-04-11T06:28:13.675Z,0.93
2023-04-11T06:29:13.675Z,0.97
2023-04-11T06:30:13.694Z,0.96
2023-04-11T06:31:13.747Z,0.96
2023-04-11T06:32:13.712Z,0.96
2023-04-11T06:33:13.951Z,0.98
2023-04-11T06:34:13.711Z,0.99
2023-04-11T06:35:13.686Z,1.02
2023-04-11T06:36:13.702Z,1.04
2023-04-11T06:37:14.646Z,1.02
2023-04-11T06:38:13.969Z,1.04
2023-04-11T06:39:13.672Z,1.03
2023-04-11T06:40:13.621Z,1.04
2023-04-11T06:41:13.621Z,1.07
2023-04-11T06:42:13.983Z,1.10
2023-04-11T06:43:13.605Z,1.17
2023-04-11T06:44:13.605Z,1.23
2023-04-11T06:45:13.588Z,1.27
2023-04-11T06:46:13.650Z,1.38
2023-04-11T06:47:13.966Z,1.47
2023-04-11T06:48:13.924Z,1.53
2023-04-11T06:49:13.692Z,1.56
2023-04-11T06:50:13.768Z,1.62
2023-04-11T06:51:13.863Z,1.68
2023-04-11T06:52:13.944Z,1.74
2023-04-11T06:53:13.940Z,1.84
2023-04-11T06:54:14.423Z,1.89
2023-04-11T06:55:14.042Z,1.96
2023-04-11T06:56:14.085Z,2.03
2023-04-11T06:57:22.014Z,2.04
2023-04-11T06:58:14.117Z,2.05
2023-04-11T06:59:14.432Z,2.08
2023-04-11T07:00:14.108Z,2.13
2023-04-11T07:01:14.096Z,2.20
2023-04-11T07:02:14.188Z,2.33
2023-04-11T07:03:14.210Z,2.44
2023-04-11T07:04:14.471Z,2.42
2023-04-11T07:05:14.094Z,2.51
2023-04-11T07:06:14.096Z,2.56
2023-04-11T07:07:14.096Z,2.54
2023-04-11T07:08:14.096Z,2.61
2023-04-11T07:09:14.065Z,2.69
2023-04-11T07:10:14.045Z,2.68
2023-04-11T07:11:14.066Z,2.74
2023-04-11T07:12:14.026Z,2.74
2023-04-11T07:13:14.021Z,2.81
2023-04-11T07:14:14.036Z,2.84
2023-04-11T07:15:14.053Z,2.85
2023-04-11T07:16:14.035Z,2.83
2023-04-11T07:17:14.009Z,2.89
2023-04-11T07:18:14.049Z,2.95
2023-04-11T07:19:14.013Z,2.94
2023-04-11T07:20:13.980Z,3.04
2023-04-11T07:21:14.037Z,3.14
2023-04-11T07:22:13.960Z,3.09
2023-04-11T07:23:13.969Z,3.10
2023-04-11T07:24:14.438Z,3.10
2023-04-11T07:25:13.996Z,3.18
2023-04-11T07:26:14.452Z,3.31
2023-04-11T07:27:13.968Z,3.31
2023-04-11T07:28:13.923Z,3.35
2023-04-11T07:29:14.914Z,3.46
2023-04-11T07:30:13.920Z,3.47
2023-04-11T07:31:14.026Z,3.46
2023-04-11T07:32:13.889Z,3.48
2023-04-11T07:33:14.219Z,3.47
2023-04-11T07:34:13.881Z,3.03
2023-04-11T07:35:13.945Z,3.52
2023-04-11T07:36:13.899Z,3.42
2023-04-11T07:37:13.865Z,2.99
2023-04-11T07:38:13.929Z,2.83
2023-04-11T07:39:13.959Z,3.06
2023-04-11T07:40:13.963Z,3.08
2023-04-11T07:41:13.828Z,2.83
2023-04-11T07:42:13.834Z,2.81
2023-04-11T07:43:13.852Z,2.56
2023-04-11T07:44:17.167Z,2.90
2023-04-11T07:45:13.904Z,2.91
2023-04-11T07:46:13.856Z,2.92
2023-04-11T07:47:13.785Z,2.99
2023-04-11T07:48:13.809Z,3.16
2023-04-11T07:49:13.954Z,3.69
2023-04-11T07:50:13.762Z,4.15
2023-04-11T07:51:13.766Z,4.36
2023-04-11T07:52:14.503Z,4.39
2023-04-11T07:53:13.949Z,4.57
2023-04-11T07:54:13.752Z,4.76
2023-04-11T07:55:13.779Z,4.71
2023-04-11T07:56:13.949Z,4.67
2023-04-11T07:57:13.736Z,4.77
2023-04-11T07:58:14.769Z,4.73
2023-04-11T07:59:13.709Z,4.44
2023-04-11T08:00:13.700Z,4.38
2023-04-11T08:01:13.980Z,4.42
2023-04-11T08:02:14.338Z,4.40
2023-04-11T08:03:14.098Z,4.38
2023-04-11T08:04:14.513Z,3.67
2023-04-11T08:05:13.926Z,3.29
2023-04-11T08:06:14.469Z,2.89
2023-04-11T08:07:13.950Z,2.52
2023-04-11T08:08:13.666Z,2.28
2023-04-11T08:09:13.967Z,2.28
2023-04-11T08:10:13.652Z,2.10
2023-04-11T08:11:13.645Z,2.00
2023-04-11T08:12:17.212Z,1.80
2023-04-11T08:13:13.614Z,1.80
2023-04-11T08:14:13.628Z,1.74
2023-04-11T08:15:13.580Z,1.66
2023-04-11T08:16:16.819Z,1.62
2023-04-11T08:17:25.139Z,1.69
2023-04-11T08:18:13.607Z,1.78
2023-04-11T08:19:13.970Z,1.72
2023-04-11T08:20:13.604Z,1.68
2023-04-11T08:21:13.624Z,1.72
2023-04-11T08:22:13.567Z,1.71
2023-04-11T08:23:13.554Z,1.76
2023-04-11T08:24:13.965Z,1.77
2023-04-11T08:25:13.549Z,1.83
2023-04-11T08:26:13.992Z,1.82
2023-04-11T08:27:13.553Z,1.88
2023-04-11T08:28:13.544Z,1.92
2023-04-11T08:29:13.498Z,2.01
2023-04-11T08:30:13.530Z,1.98
2023-04-11T08:31:13.988Z,2.08
2023-04-11T08:32:13.958Z,2.10
2023-04-11T08:33:13.479Z,2.16
2023-04-11T08:34:13.976Z,2.18
2023-04-11T08:35:13.467Z,2.25
2023-04-11T08:36:13.537Z,2.33
2023-04-11T08:37:13.455Z,2.29
2023-04-11T08:38:13.452Z,2.38
2023-04-11T08:39:13.469Z,2.42
2023-04-11T08:40:13.502Z,2.50
2023-04-11T08:41:13.423Z,2.54
2023-04-11T08:42:13.405Z,2.56
2023-04-11T08:43:13.428Z,2.58
2023-04-11T08:44:13.508Z,2.68
2023-04-11T08:45:13.500Z,2.70
2023-04-11T08:46:13.450Z,2.73
2023-04-11T08:47:13.374Z,2.76
2023-04-11T08:48:13.372Z,2.80
2023-04-11T08:49:13.429Z,2.92
2023-04-11T08:50:13.487Z,3.02
2023-04-11T08:51:13.351Z,3.05
2023-04-11T08:52:13.336Z,3.10
2023-04-11T08:53:13.338Z,3.09
2023-04-11T08:54:13.483Z,3.18
2023-04-11T08:55:13.318Z,3.22
2023-04-11T08:56:13.317Z,3.29
2023-04-11T08:57:13.334Z,3.36
2023-04-11T08:58:13.291Z,3.37
2023-04-11T08:59:13.496Z,3.40
2023-04-11T09:00:13.281Z,3.48
2023-04-11T09:01:13.382Z,3.54
2023-04-11T09:02:13.498Z,3.55
2023-04-11T09:03:13.621Z,3.76
2023-04-11T09:04:13.976Z,3.77
2023-04-11T09:05:13.633Z,3.86
2023-04-11T09:06:14.036Z,3.76
2023-04-11T09:07:13.693Z,3.73
2023-04-11T09:08:13.753Z,3.69
2023-04-11T09:09:14.786Z,3.80
2023-04-11T09:10:13.850Z,3.74
2023-04-11T09:11:13.979Z,3.56
2023-04-11T09:12:13.943Z,3.11
2023-04-11T09:13:14.120Z,2.45
2023-04-11T09:14:14.073Z,2.21
2023-04-11T09:15:14.671Z,1.92
2023-04-11T09:16:14.136Z,1.78
2023-04-11T09:17:14.092Z,2.08
2023-04-11T09:18:14.102Z,2.01
2023-04-11T09:19:14.139Z,1.94
2023-04-11T09:20:14.484Z,1.84
2023-04-11T09:21:14.166Z,1.87
2023-04-11T09:22:14.149Z,1.89
2023-04-11T09:23:14.193Z,1.95
2023-04-11T09:24:14.492Z,2.00
2023-04-11T09:25:14.226Z,2.04
2023-04-11T09:26:14.242Z,2.09
2023-04-11T09:27:14.232Z,2.13
2023-04-11T09:28:14.239Z,2.17
2023-04-11T09:29:14.981Z,2.21
2023-04-11T09:30:17.779Z,2.29
2023-04-11T09:31:14.642Z,2.29
2023-04-11T09:32:14.289Z,2.31
2023-04-11T09:33:14.284Z,2.34
2023-04-11T09:34:14.486Z,2.40
2023-04-11T09:35:14.282Z,2.50
2023-04-11T09:36:14.312Z,2.55
2023-04-11T09:37:14.302Z,2.65
2023-04-11T09:38:14.271Z,2.67
2023-04-11T09:39:15.490Z,2.69
2023-04-11T09:40:14.535Z,2.74
2023-04-11T09:41:14.229Z,2.76
2023-04-11T09:42:14.483Z,2.80
2023-04-11T09:43:14.279Z,2.98
2023-04-11T09:44:14.278Z,3.02
2023-04-11T09:45:17.525Z,3.07
2023-04-11T09:46:14.559Z,3.08
2023-04-11T09:47:14.316Z,3.10
2023-04-11T09:48:14.296Z,3.13
2023-04-11T09:49:14.304Z,3.22
2023-04-11T09:50:14.282Z,3.23
2023-04-11T09:51:24.280Z,3.23
2023-04-11T09:52:14.502Z,3.24
2023-04-11T09:53:14.280Z,3.27
2023-04-11T09:54:14.510Z,3.29
2023-04-11T09:55:14.849Z,3.38
2023-04-11T09:56:14.271Z,3.54
2023-04-11T09:57:14.267Z,3.54
2023-04-11T09:58:14.510Z,3.54
2023-04-11T09:59:14.225Z,3.54
2023-04-11T10:00:14.238Z,3.60
2023-04-11T10:01:14.507Z,3.71
2023-04-11T10:02:14.349Z,3.67
2023-04-11T10:03:14.391Z,3.83
2023-04-11T10:04:14.577Z,3.81
2023-04-11T10:05:14.577Z,3.94
2023-04-11T10:06:14.164Z,3.99
2023-04-11T10:07:15.118Z,4.00
2023-04-11T10:08:14.581Z,3.97
2023-04-11T10:09:15.148Z,3.63
2023-04-11T10:10:14.699Z,2.97
2023-04-11T10:11:14.928Z,2.40
2023-04-11T10:12:14.144Z,1.76
2023-04-11T10:13:14.321Z,1.66
2023-04-11T10:14:14.120Z,1.37
2023-04-11T10:15:14.111Z,1.26
2023-04-11T10:16:14.184Z,1.23
2023-04-11T10:17:15.743Z,1.11
2023-04-11T10:18:14.130Z,1.19
2023-04-11T10:19:14.082Z,1.21
2023-04-11T10:20:14.130Z,1.12
2023-04-11T10:21:14.062Z,1.06
2023-04-11T10:22:14.500Z,1.01
2023-04-11T10:23:14.511Z,0.94
2023-04-11T10:24:16.598Z,0.91
2023-04-11T10:25:14.057Z,0.91
2023-04-11T10:26:23.029Z,0.91
2023-04-11T10:27:14.506Z,0.92
2023-04-11T10:28:14.013Z,0.94
2023-04-11T10:29:14.541Z,0.99
2023-04-11T10:30:14.013Z,1.11
2023-04-11T10:31:14.079Z,1.30
2023-04-11T10:32:13.994Z,1.44
2023-04-11T10:33:14.035Z,1.48
2023-04-11T10:34:13.990Z,1.49
2023-04-11T10:35:13.963Z,1.47
2023-04-11T10:36:14.020Z,1.48
2023-04-11T10:37:13.953Z,1.48
2023-04-11T10:38:14.531Z,1.48
2023-04-11T10:39:14.027Z,1.49
2023-04-11T10:40:14.045Z,1.49
2023-04-11T10:41:13.918Z,1.52
2023-04-11T10:42:13.922Z,1.51
2023-04-11T10:43:13.985Z,1.57
2023-04-11T10:44:14.009Z,1.56
2023-04-11T10:45:13.896Z,1.61
2023-04-11T10:46:14.022Z,1.61
2023-04-11T10:47:13.919Z,1.65
2023-04-11T10:48:13.879Z,1.64
2023-04-11T10:49:14.010Z,1.63
2023-04-11T10:50:13.885Z,1.68
2023-04-11T10:51:13.842Z,1.64
2023-04-11T10:52:13.836Z,1.65
2023-04-11T10:53:14.030Z,1.65
2023-04-11T10:54:14.011Z,1.66
2023-04-11T10:55:13.834Z,1.64
2023-04-11T10:56:15.030Z,1.66
2023-04-11T10:57:14.062Z,1.66
2023-04-11T10:58:14.523Z,1.68
2023-04-11T10:59:14.516Z,1.69
2023-04-11T11:00:14.098Z,1.63
2023-04-11T11:01:21.427Z,1.70
2023-04-11T11:02:14.182Z,1.70
2023-04-11T11:03:14.203Z,1.71
2023-04-11T11:04:14.900Z,1.70
2023-04-11T11:05:14.092Z,1.69
2023-04-11T11:06:14.550Z,1.68
2023-04-11T11:07:14.093Z,1.67
2023-04-11T11:08:14.197Z,1.64
2023-04-11T11:09:14.632Z,1.65
2023-04-11T11:10:14.056Z,1.64
2023-04-11T11:11:14.046Z,1.67
2023-04-11T11:12:14.214Z,1.63
2023-04-11T11:13:14.518Z,1.64
2023-04-11T11:14:14.055Z,1.64
2023-04-11T11:15:14.028Z,1.64
2023-04-11T11:16:14.064Z,1.63
2023-04-11T11:17:14.073Z,1.64
2023-04-11T11:18:14.014Z,1.62
2023-04-11T11:19:14.003Z,1.62
2023-04-11T11:20:13.999Z,1.64
2023-04-11T11:21:17.234Z,1.61
2023-04-11T11:22:14.010Z,1.62
2023-04-11T11:23:14.020Z,1.63
2023-04-11T11:24:14.021Z,1.64
2023-04-11T11:25:13.987Z,1.64
2023-04-11T11:26:13.963Z,1.59
2023-04-11T11:27:13.953Z,1.65
2023-04-11T11:28:13.946Z,1.62
2023-04-11T11:29:14.089Z,1.60
2023-04-11T11:30:13.948Z,1.61
2023-04-11T11:31:13.924Z,1.58
2023-04-11T11:32:14.018Z,1.61
2023-04-11T11:33:13.929Z,1.59
2023-04-11T11:35:13.927Z,1.59
2023-04-11T11:36:14.006Z,1.60
2023-04-11T11:37:13.967Z,1.60
2023-04-11T11:38:14.054Z,1.57
2023-04-11T11:39:13.922Z,1.59
2023-04-11T11:40:13.897Z,1.55
2023-04-11T11:41:13.845Z,1.54
2023-04-11T11:42:13.839Z,1.54
2023-04-11T11:43:14.048Z,1.50
2023-04-11T11:44:13.843Z,1.53
2023-04-11T11:45:13.822Z,1.56
2023-04-11T11:46:13.822Z,1.49
2023-04-11T11:47:13.808Z,1.51
2023-04-11T11:48:14.032Z,1.49
2023-04-11T11:49:13.805Z,1.47
2023-04-11T11:50:13.807Z,1.46
2023-04-11T11:51:13.814Z,1.43
2023-04-11T11:52:14.086Z,1.42
2023-04-11T11:53:13.765Z,1.42
2023-04-11T11:54:13.858Z,1.41
2023-04-11T11:55:13.802Z,1.41
2023-04-11T11:56:13.751Z,1.42
2023-04-11T11:57:14.050Z,1.40
2023-04-11T11:58:14.044Z,1.39
2023-04-11T11:59:13.711Z,1.39
2023-04-11T12:00:13.707Z,1.38
2023-04-11T12:02:12.774Z,1.37
2023-04-11T12:03:13.810Z,1.34
2023-04-11T12:04:13.833Z,1.38
2023-04-11T12:05:13.754Z,1.35
2023-04-11T12:06:13.677Z,1.34
2023-04-11T12:07:13.658Z,1.35
2023-04-11T12:08:14.044Z,1.32
2023-04-11T12:09:13.653Z,1.38
2023-04-11T12:10:13.679Z,1.38
2023-04-11T12:11:13.637Z,1.41
2023-04-11T12:12:13.629Z,1.39
2023-04-11T12:13:14.048Z,1.48
2023-04-11T12:14:13.949Z,1.50
2023-04-11T12:15:13.621Z,1.53
2023-04-11T12:16:14.121Z,1.58
2023-04-11T12:17:13.587Z,1.61
2023-04-11T12:18:13.629Z,1.62
2023-04-11T12:19:13.590Z,1.60
2023-04-11T12:20:13.651Z,1.61
2023-04-11T12:21:14.037Z,1.63
2023-04-11T12:22:13.852Z,1.61
2023-04-11T12:23:14.038Z,1.57
2023-04-11T12:24:13.551Z,1.58
2023-04-11T12:25:13.562Z,1.55
2023-04-11T12:26:13.685Z,1.53
2023-04-11T12:27:13.562Z,1.53
2023-04-11T12:28:13.579Z,1.54
2023-04-11T12:29:14.041Z,1.50
2023-04-11T12:30:13.626Z,1.47
2023-04-11T12:31:13.704Z,1.46
2023-04-11T12:32:13.675Z,1.46
2023-04-11T12:33:14.045Z,1.42
2023-04-11T12:34:13.717Z,1.46
2023-04-11T12:35:14.049Z,1.42
2023-04-11T12:36:13.763Z,1.46
2023-04-11T12:37:13.788Z,1.44
2023-04-11T12:38:17.330Z,1.40
2023-04-11T12:39:14.045Z,1.40
2023-04-11T12:40:14.298Z,1.37
2023-04-11T12:41:31.525Z,1.40
2023-04-11T12:42:16.739Z,1.40
2023-04-11T12:43:13.765Z,1.41
2023-04-11T12:44:14.030Z,1.41
2023-04-11T12:45:13.764Z,1.40
2023-04-11T12:46:13.805Z,1.36
2023-04-11T12:47:14.063Z,1.34
2023-04-11T12:48:13.737Z,1.33
2023-04-11T12:49:14.089Z,1.33
2023-04-11T12:50:13.862Z,1.30
2023-04-11T12:51:13.713Z,1.31
2023-04-11T12:52:13.719Z,1.28
2023-04-11T12:53:13.706Z,1.29
2023-04-11T12:54:14.064Z,1.28
2023-04-11T12:55:13.819Z,1.30
2023-04-11T12:56:13.735Z,1.30
2023-04-11T12:57:15.602Z,1.30
2023-04-11T12:58:13.662Z,1.34
2023-04-11T12:59:14.059Z,1.34
2023-04-11T13:00:13.737Z,1.32
2023-04-11T13:01:13.668Z,1.33
2023-04-11T13:02:13.772Z,1.30
2023-04-11T13:03:13.983Z,1.33
2023-04-11T13:04:14.242Z,1.30
2023-04-11T13:05:13.919Z,1.32
2023-04-11T13:06:13.609Z,1.33
2023-04-11T13:07:13.604Z,1.29
2023-04-11T13:08:13.601Z,1.30
2023-04-11T13:09:14.075Z,1.28
2023-04-11T13:10:13.873Z,1.28
2023-04-11T13:11:14.559Z,1.30
2023-04-11T13:12:13.646Z,1.29
2023-04-11T13:14:13.068Z,1.28
2023-04-11T13:15:13.681Z,1.28
2023-04-11T13:16:13.709Z,1.29
2023-04-11T13:17:13.675Z,1.29
2023-04-11T13:18:13.699Z,1.28
2023-04-11T13:19:14.063Z,1.26
2023-04-11T13:20:13.664Z,1.26
2023-04-11T13:21:13.639Z,1.24